Accueil
METAR-TAF:

METAR-TAF

Aéroports :

Aéroport de Tours-Val de Loire

Tours, France

latitude: 47-27N, longitude: 000-43E, altitude: 108 m

Observation

Le bulletin a été fait il y a 22 minutes, à 00:00 UTC
Vent 2 kt de ouest
Température 17°C
Humidité 77%
Pression 1020 hPa
Visibilité 10 km ou plus
pas de nuages en-dessous de 1500 mètres et pas de cumulonimbus.

METAR: LFOT 180000Z AUTO 28002KT CAVOK 17/13 Q1020 NOSIG

Heure: 02:22 (00:22 UTC)

Prévision

Le bulletin a été fait il y a 1 heure et 22 minutes, à 23:00 UTC
Prévision valable du 18 à 00 UTC au 18 à 24 UTC
Vent 5 kt de ouest
Visibilité 10 km ou plus
pas de nuages en-dessous de 1500 mètres et pas de cumulonimbus.
Evoluant progressivement
du 18 à 08 UTC au 18 à 10 UTC
Vent 10 kt de est

TAF: LFOT 172300Z 1800/1824 28005KT CAVOK BECMG 1808/1810 09010KT

Observations et prévisions météorologiques de plus de 4000 aéroports (messages METAR et TAF).

Les stations disponibles sont représentées par des disques jaunes et rouges sur la carte.

Passer la souris dessus pour voir le nom de la station.

Cliquer dessus pour voir les observations et prévisions météorologiques.

Pour changer de carte: cliquez sur les boutons verts avec une croix noire pour zoomer, sur le bouton vert avec un tiret pour effectuer un zoom arrière, ou sur les flèches vertes pour les cartes adjacentes.


METAR-TAF: